EW7277 Weather Reports


Display with metric or nautical units.
time (UTC)temp
F
wind
direction
speed
MPH
gust
MPH
rain 1hr
in
rain 24hr
in
rain mn
in
humidity
%
barometer
mb
20181113042010 44 151 1.0 4.0 0.00 0.01 0.00 98 1020.9
20181113041511 44 120 2.0 6.0 0.00 0.01 0.00 98 1020.9
20181113041010 44 119 3.0 6.0 0.00 0.01 0.00 98 1021.0
20181113040510 44 124 3.0 5.0 0.00 0.01 0.00 98 1021.0
20181113040010 44 124 2.0 5.0 0.00 0.02 0.00 98 1021.1
20181113035510 44 136 1.0 3.0 0.00 0.02 0.00 98 1021.1
20181113035011 44 155 1.0 3.0 0.00 0.02 0.00 98 1021.1
20181113034511 44 155 1.0 3.0 0.00 0.02 0.00 98 1021.1
20181113034010 44 155 0.0 3.0 0.00 0.02 0.00 98 1021.2
20181113033510 44 147 1.0 6.0 0.00 0.02 0.00 98 1021.3
20181113033010 44 147 3.0 6.0 0.00 0.02 0.00 98 1021.3
20181113032510 45 147 2.0 5.0 0.00 0.02 0.00 98 1021.2
20181113032011 45 146 0.0 3.0 0.00 0.02 0.00 98 1021.2
20181113031510 45 0 0.0 0.0 0.00 0.02 0.00 98 1021.2
20181113031010 45 0 0.0 0.0 0.00 0.02 0.00 98 1021.4
20181113030510 45 0 0.0 0.0 0.00 0.02 0.00 98 1021.4
20181113030010 45 188 0.0 1.0 0.00 0.02 0.00 98 1021.4
20181113025510 45 193 0.0 2.0 0.00 0.02 0.00 98 1021.5
20181113025011 45 195 0.0 2.0 0.00 0.02 0.00 98 1021.4
20181113024510 45 221 0.0 1.0 0.00 0.02 0.00 98 1021.4
20181113024011 45 221 1.0 2.0 0.00 0.02 0.00 98 1021.4
20181113023511 45 221 1.0 2.0 0.00 0.02 0.00 98 1021.5
20181113023011 45 220 1.0 2.0 0.00 0.02 0.00 98 1021.5
20181113022510 45 220 0.0 2.0 0.00 0.02 0.00 98 1021.5
20181113022010 45 220 0.0 2.0 0.00 0.02 0.00 98 1021.5
20181113021512 45 206 1.0 4.0 0.00 0.02 0.00 98 1021.5
20181113021010 45 208 2.0 4.0 0.00 0.02 0.00 98 1021.5
20181113020510 45 179 2.0 5.0 0.00 0.02 0.00 98 1021.5
20181113020012 45 152 2.0 5.0 0.00 0.02 0.00 98 1021.5
20181113015510 45 141 2.0 5.0 0.00 0.02 0.00 98 1021.5
20181113015011 45 134 2.0 5.0 0.00 0.02 0.00 98 1021.5
20181113014510 45 127 1.0 4.0 0.00 0.02 0.00 98 1021.6
20181113014010 45 0 0.0 0.0 0.00 0.02 0.00 98 1021.7
20181113013510 45 0 0.0 0.0 0.00 0.02 0.00 98 1021.7
20181113013011 45 0 0.0 0.0 0.00 0.02 0.00 98 1021.8
20181113012511 45 0 0.0 0.0 0.00 0.02 0.00 98 1021.9
20181113012010 45 0 0.0 0.0 0.00 0.02 0.00 98 1021.9
20181113011510 45 0 0.0 0.0 0.00 0.02 0.00 98 1021.8
20181113011010 45 0 0.0 0.0 0.00 0.02 0.00 98 1021.7
20181113010510 45 0 0.0 0.0 0.00 0.02 0.00 98 1021.8
20181113010010 45 0 0.0 0.0 0.00 0.02 0.00 98 1021.8
20181113005511 45 0 0.0 0.0 0.00 0.02 0.00 98 1021.8
20181113005010 45 0 0.0 0.0 0.00 0.02 0.00 98 1021.8
20181113004510 45 0 0.0 0.0 0.00 0.02 0.00 98 1021.8
20181113004010 45 0 0.0 0.0 0.00 0.02 0.00 98 1021.8
20181113003511 45 0 0.0 0.0 0.00 0.02 0.00 98 1022.0
20181113003010 45 0 0.0 0.0 0.00 0.02 0.00 98 1021.9
20181113002510 45 0 0.0 0.0 0.00 0.02 0.00 98 1021.8
20181113002010 45 0 0.0 0.0 0.00 0.02 0.00 98 1021.8
20181113001511 45 0 0.0 0.0 0.00 0.02 0.00 98 1021.8
20181113001011 45 0 0.0 0.0 0.00 0.02 0.00 98 1021.8
20181113000510 45 0 0.0 0.0 0.00 0.02 0.00 98 1021.9
20181113000010 45 0 0.0 0.0 0.00 0.02 0.00 98 1021.9
20181112235510 45 0 0.0 0.0 0.00 0.02 0.00 98 1021.9
20181112235010 45 0 0.0 0.0 0.00 0.02 0.00 98 1021.8
20181112234511 45 0 0.0 0.0 0.00 0.02 0.00 98 1021.7
20181112234011 45 0 0.0 0.0 0.00 0.02 0.00 98 1021.8
20181112233510 45 0 0.0 0.0 0.00 0.02 0.00 98 1021.8
20181112233010 45 0 0.0 0.0 0.00 0.02 0.00 98 1021.8
20181112232510 45 0 0.0 0.0 0.00 0.02 0.00 98 1021.8
20181112232011 45 0 0.0 0.0 0.00 0.02 0.00 98 1021.8
20181112231511 45 0 0.0 0.0 0.00 0.02 0.00 98 1021.8
20181112231010 45 0 0.0 0.0 0.00 0.02 0.00 98 1021.8
20181112230510 45 0 0.0 0.0 0.00 0.02 0.00 98 1021.7
20181112230012 45 0 0.0 0.0 0.00 0.02 0.00 98 1021.6
20181112225510 45 90 0.0 1.0 0.00 0.02 0.02 98 1021.6
20181112225010 45 90 1.0 2.0 0.00 0.02 0.02 98 1021.7
20181112224511 45 90 1.0 2.0 0.00 0.02 0.02 98 1021.9
20181112224011 45 90 1.0 2.0 0.00 0.02 0.02 98 1021.9
20181112223510 45 90 2.0 3.0 0.00 0.02 0.02 98 1021.8
20181112223010 45 90 2.0 3.0 0.00 0.02 0.02 98 1021.8
20181112222510 45 90 2.0 3.0 0.00 0.02 0.02 98 1021.7
20181112222011 45 90 1.0 3.0 0.00 0.02 0.02 98 1021.6
20181112221510 45 0 0.0 0.0 0.00 0.02 0.02 98 1021.6
20181112221010 45 0 0.0 0.0 0.00 0.02 0.02 98 1021.9
20181112220510 45 0 0.0 0.0 0.00 0.02 0.02 98 1021.9
20181112220010 45 0 0.0 0.0 0.00 0.02 0.02 98 1021.9
20181112215511 45 0 0.0 0.0 0.00 0.02 0.02 98 1021.8
20181112215010 45 0 0.0 0.0 0.00 0.02 0.02 98 1021.7
20181112214510 45 0 0.0 0.0 0.00 0.02 0.02 98 1021.6
20181112214010 45 0 0.0 0.0 0.00 0.02 0.02 98 1021.5
20181112213510 45 0 0.0 0.0 0.00 0.02 0.02 98 1021.5
20181112213010 45 0 0.0 0.0 0.00 0.02 0.02 98 1021.5
20181112212511 45 0 0.0 0.0 0.00 0.02 0.02 98 1021.4
20181112212010 45 0 0.0 0.0 0.00 0.02 0.02 98 1021.5
20181112211510 45 0 0.0 0.0 0.00 0.02 0.02 98 1021.5
20181112211010 45 0 0.0 0.0 0.00 0.02 0.02 98 1021.5
20181112210510 45 0 0.0 0.0 0.00 0.02 0.02 98 1021.5
20181112210011 45 0 0.0 0.0 0.00 0.02 0.02 98 1021.5
20181112205510 45 0 0.0 0.0 0.00 0.02 0.02 98 1021.6
20181112205010 45 0 0.0 0.0 0.00 0.02 0.02 98 1021.7
20181112204510 45 0 0.0 0.0 0.00 0.02 0.02 98 1021.6
20181112204010 45 0 0.0 0.0 0.00 0.02 0.02 98 1021.6
20181112203511 45 0 0.0 0.0 0.00 0.02 0.02 98 1021.5
20181112203011 45 270 0.0 1.0 0.00 0.02 0.02 98 1021.5
20181112202510 45 270 0.0 1.0 0.00 0.02 0.02 98 1021.5
20181112202010 45 0 0.0 0.0 0.00 0.02 0.02 98 1021.5
20181112201511 45 270 0.0 2.0 0.00 0.02 0.02 98 1021.6
20181112201010 45 270 0.0 2.0 0.00 0.02 0.02 98 1021.6
20181112200511 45 270 0.0 1.0 0.00 0.02 0.02 98 1021.7
20181112200010 45 270 0.0 1.0 0.00 0.02 0.02 98 1021.5
20181112195511 45 270 0.0 1.0 0.00 0.02 0.02 98 1021.4
20181112195010 45 270 0.0 1.0 0.00 0.02 0.02 98 1021.4
20181112194510 45 270 0.0 2.0 0.00 0.02 0.02 98 1021.4
20181112194011 45 270 1.0 2.0 0.00 0.02 0.02 98 1021.3
20181112193510 45 270 1.0 2.0 0.00 0.02 0.02 98 1021.3
20181112193010 45 270 0.0 1.0 0.00 0.02 0.02 98 1021.3
20181112192510 45 271 1.0 3.0 0.00 0.02 0.02 98 1021.1
20181112192010 45 271 2.0 4.0 0.00 0.02 0.02 98 1021.3
20181112191510 45 272 1.0 4.0 0.00 0.02 0.02 98 1021.3
20181112191010 45 274 0.0 4.0 0.00 0.02 0.02 98 1021.3
20181112190511 45 0 0.0 0.0 0.00 0.02 0.02 98 1021.2
20181112190010 45 0 0.0 0.0 0.00 0.02 0.02 98 1021.2
20181112185512 45 0 0.0 0.0 0.00 0.02 0.02 98 1021.1
20181112185011 45 257 0.0 1.0 0.00 0.02 0.02 98 1021.1
20181112184510 45 258 1.0 3.0 0.00 0.02 0.02 98 1021.1
20181112184011 45 263 2.0 3.0 0.00 0.02 0.02 98 1021.3
20181112183510 45 265 2.0 4.0 0.00 0.02 0.02 98 1021.2
20181112183010 45 266 2.0 4.0 0.00 0.02 0.02 98 1021.1
20181112182510 45 271 1.0 4.0 0.00 0.02 0.02 98 1021.2
20181112182009 45 248 0.0 2.0 0.00 0.02 0.02 98 1021.1
20181112181511 45 249 1.0 2.0 0.00 0.02 0.02 98 1020.9
20181112181010 45 249 1.0 3.0 0.00 0.02 0.02 98 1021.0
20181112180510 45 251 2.0 3.0 0.00 0.02 0.02 98 1020.9
20181112180010 45 259 2.0 3.0 0.00 0.02 0.02 98 1020.9
20181112175510 45 265 2.0 3.0 0.00 0.02 0.02 98 1020.9
20181112175010 45 265 2.0 4.0 0.00 0.02 0.02 98 1020.9
20181112174510 45 267 2.0 4.0 0.00 0.02 0.02 98 1021.0
20181112174010 45 268 2.0 4.0 0.00 0.02 0.02 98 1021.0
20181112173511 45 255 1.0 2.0 0.00 0.02 0.02 98 1020.8
20181112173010 45 255 0.0 2.0 0.00 0.02 0.02 98 1020.8
20181112172510 44 255 0.0 1.0 0.00 0.02 0.02 98 1020.8
20181112172010 44 255 0.0 1.0 0.00 0.02 0.02 98 1020.8
20181112171510 44 255 1.0 2.0 0.00 0.02 0.02 98 1020.7
20181112171010 44 255 1.0 3.0 0.00 0.02 0.02 98 1020.8
20181112170510 44 256 2.0 5.0 0.00 0.02 0.02 98 1020.7
20181112170011 44 260 3.0 5.0 0.00 0.02 0.02 98 1020.7
20181112165510 44 266 3.0 4.0 0.00 0.02 0.02 98 1020.8
20181112165010 44 270 2.0 4.0 0.00 0.02 0.02 98 1020.7
20181112164510 44 271 2.0 4.0 0.00 0.02 0.02 98 1020.6
20181112164010 44 272 1.0 3.0 0.00 0.02 0.02 98 1020.5
20181112163511 44 276 1.0 3.0 0.00 0.02 0.02 98 1020.4
20181112163010 44 276 1.0 2.0 0.00 0.02 0.02 98 1020.3
20181112162510 44 276 1.0 2.0 0.00 0.02 0.02 98 1020.3
20181112162010 44 279 1.0 3.0 0.00 0.02 0.02 98 1020.2
20181112161510 44 274 2.0 3.0 0.00 0.02 0.02 98 1020.3
20181112161010 44 268 2.0 3.0 0.00 0.02 0.02 98 1020.3
20181112160510 44 265 2.0 5.0 0.00 0.02 0.02 98 1020.2
20181112160010 44 271 3.0 8.0 0.00 0.02 0.02 98 1020.4
20181112155510 44 270 4.0 8.0 0.00 0.02 0.02 98 1020.4
20181112155010 44 263 4.0 8.0 0.00 0.02 0.02 98 1020.4
20181112154510 45 263 3.0 6.0 0.00 0.02 0.02 98 1020.4
20181112154011 45 269 3.0 5.0 0.00 0.02 0.02 98 1020.4
20181112153510 45 271 3.0 6.0 0.00 0.02 0.02 98 1020.3
20181112153010 45 273 3.0 6.0 0.00 0.02 0.02 98 1020.3
20181112152510 45 279 3.0 7.0 0.00 0.02 0.02 98 1020.1
20181112152010 45 284 2.0 7.0 0.00 0.02 0.02 98 1020.1
20181112151510 45 288 2.0 3.0 0.00 0.02 0.02 98 1020.0
20181112151010 45 294 2.0 3.0 0.00 0.02 0.02 98 1020.0
20181112150011 45 288 2.0 4.0 0.00 0.02 0.02 98 1019.8
20181112145510 45 280 1.0 4.0 0.00 0.02 0.02 98 1019.8
20181112145011 46 309 1.0 4.0 0.00 0.02 0.02 98 1019.7
20181112144510 46 345 1.0 3.0 0.00 0.02 0.02 98 1019.6
20181112144010 46 0 0.0 0.0 0.00 0.02 0.02 98 1019.7
20181112143510 46 0 0.0 0.0 0.00 0.02 0.02 98 1019.7
20181112143010 46 0 0.0 0.0 0.00 0.02 0.02 98 1019.8
20181112142510 46 0 0.0 0.0 0.00 0.02 0.02 98 1019.8
20181112142010 46 0 0.0 0.0 0.00 0.02 0.02 98 1019.7
20181112141510 46 279 0.0 1.0 0.00 0.02 0.02 98 1019.7
20181112141010 46 279 1.0 2.0 0.00 0.02 0.02 98 1019.8
20181112140510 46 279 1.0 2.0 0.00 0.02 0.02 98 1019.7
20181112140010 46 279 0.0 2.0 0.00 0.02 0.02 98 1019.7
20181112135510 46 0 0.0 0.0 0.00 0.02 0.02 98 1019.7
20181112135010 46 0 0.0 0.0 0.00 0.02 0.02 98 1019.6
20181112134510 46 0 0.0 0.0 0.00 0.02 0.02 98 1019.6
20181112134010 46 0 0.0 0.0 0.00 0.02 0.02 98 1019.6
20181112133510 46 0 0.0 0.0 0.00 0.02 0.02 98 1019.4
20181112133009 46 0 0.0 0.0 0.00 0.02 0.02 98 1019.4
20181112132511 46 0 0.0 0.0 0.00 0.02 0.02 98 1019.5
20181112132010 46 0 0.0 0.0 0.00 0.02 0.02 98 1019.4
20181112131510 46 0 0.0 0.0 0.00 0.02 0.02 98 1019.3
20181112131009 46 0 0.0 0.0 0.00 0.02 0.02 98 1019.5
20181112130510 46 0 0.0 0.0 0.00 0.02 0.02 98 1019.4
20181112130010 45 0 0.0 0.0 0.00 0.02 0.02 98 1019.4
20181112125510 45 0 0.0 0.0 0.00 0.02 0.02 98 1019.4
20181112125010 45 70 1.0 2.0 0.00 0.02 0.02 98 1019.4
20181112124510 45 69 1.0 3.0 0.00 0.02 0.02 98 1019.4
20181112124011 45 70 1.0 3.0 0.00 0.02 0.02 98 1019.4
20181112123510 45 69 1.0 3.0 0.00 0.02 0.02 98 1019.5
20181112123010 45 69 1.0 3.0 0.00 0.02 0.02 98 1019.5
20181112122510 45 69 1.0 2.0 0.00 0.02 0.02 98 1019.6
20181112122010 45 69 1.0 2.0 0.00 0.02 0.02 98 1019.7
20181112121509 45 69 1.0 2.0 0.00 0.02 0.02 98 1019.8
20181112121010 45 69 0.0 2.0 0.00 0.02 0.02 98 1019.7
20181112120510 45 0 0.0 0.0 0.00 0.02 0.02 98 1019.8
20181112120010 45 70 0.0 1.0 0.00 0.02 0.02 98 1019.9
20181112115510 45 70 1.0 2.0 0.00 0.02 0.02 98 1019.9
20181112115009 45 69 1.0 3.0 0.00 0.02 0.02 98 1019.9
20181112114510 45 71 2.0 4.0 0.00 0.02 0.02 98 1019.8
20181112114010 45 58 3.0 4.0 0.00 0.02 0.02 98 1019.8
20181112113509 45 52 3.0 4.0 0.00 0.02 0.02 98 1019.7
20181112113010 45 56 3.0 4.0 0.00 0.02 0.02 98 1019.8
20181112112511 45 53 3.0 4.0 0.00 0.02 0.02 98 1019.8
20181112112010 45 54 3.0 5.0 0.00 0.02 0.02 98 1019.8
20181112111510 45 57 3.0 5.0 0.00 0.02 0.02 98 1019.7
20181112111010 45 56 2.0 5.0 0.00 0.02 0.02 98 1019.5
20181112110510 44 56 2.0 5.0 0.00 0.02 0.02 98 1019.6
20181112110011 44 59 0.0 4.0 0.00 0.02 0.02 98 1019.5
20181112105510 44 0 0.0 0.0 0.00 0.02 0.02 98 1019.5
20181112105010 44 0 0.0 0.0 0.00 0.02 0.02 98 1019.6
20181112104510 44 0 0.0 0.0 0.00 0.02 0.02 98 1019.8
20181112104010 44 0 0.0 0.0 0.00 0.02 0.02 98 1019.8
20181112103509 44 0 0.0 0.0 0.00 0.02 0.02 98 1019.8
20181112103010 44 0 0.0 0.0 0.00 0.02 0.02 98 1019.8
20181112102510 44 0 0.0 0.0 0.00 0.02 0.02 98 1019.8
20181112102010 44 0 0.0 0.0 0.00 0.02 0.02 98 1019.9
20181112101510 43 0 0.0 0.0 0.00 0.02 0.02 98 1019.9
20181112101010 43 0 0.0 0.0 0.00 0.02 0.02 98 1020.0
20181112100510 43 0 0.0 0.0 0.00 0.02 0.02 98 1020.0
20181112100010 43 0 0.0 0.0 0.00 0.02 0.02 98 1019.9
20181112095510 43 0 0.0 0.0 0.00 0.02 0.02 98 1020.1
20181112095009 43 0 0.0 0.0 0.00 0.02 0.02 98 1020.1
20181112094510 43 0 0.0 0.0 0.00 0.02 0.02 98 1020.2
20181112094010 43 107 0.0 1.0 0.01 0.02 0.02 98 1020.3
20181112093510 43 106 0.0 1.0 0.01 0.02 0.02 98 1020.1
20181112093010 43 106 0.0 1.0 0.01 0.02 0.02 98 1020.0
20181112092510 43 106 0.0 2.0 0.01 0.02 0.02 98 1020.1
20181112092010 43 107 1.0 3.0 0.01 0.02 0.02 97 1019.9
20181112091510 43 100 2.0 3.0 0.01 0.02 0.02 98 1019.8
20181112091010 42 90 3.0 4.0 0.01 0.02 0.02 98 1019.7
20181112090510 42 84 3.0 4.0 0.01 0.02 0.02 98 1019.6
20181112090010 42 80 2.0 4.0 0.01 0.02 0.02 98 1019.7
20181112085510 42 80 2.0 3.0 0.01 0.02 0.02 98 1019.8
20181112085009 42 81 2.0 4.0 0.01 0.02 0.02 98 1019.8
20181112084510 42 73 2.0 4.0 0.01 0.02 0.02 98 1020.0
20181112084010 42 57 2.0 3.0 0.00 0.01 0.01 98 1020.0
20181112083510 42 46 2.0 3.0 0.00 0.01 0.01 98 1020.0
20181112083010 42 51 2.0 4.0 0.00 0.01 0.01 97 1020.0
20181112082509 42 47 2.0 4.0 0.00 0.01 0.01 97 1020.0
20181112082010 42 29 1.0 3.0 0.00 0.01 0.01 97 1020.1
20181112081510 42 27 1.0 2.0 0.00 0.01 0.01 98 1020.1
20181112081010 42 27 1.0 2.0 0.00 0.01 0.01 98 1020.2
20181112080509 42 27 2.0 3.0 0.00 0.01 0.01 98 1020.2
20181112080011 42 27 2.0 3.0 0.00 0.01 0.01 98 1020.2
20181112075510 42 40 2.0 3.0 0.00 0.01 0.01 98 1020.1
20181112075010 42 57 2.0 4.0 0.00 0.01 0.01 98 1020.1
20181112074510 42 59 3.0 4.0 0.00 0.01 0.01 98 1020.1
20181112074010 42 47 3.0 4.0 0.00 0.01 0.01 98 1020.0
20181112073510 42 42 3.0 4.0 0.00 0.01 0.01 98 1020.0
20181112073009 42 50 3.0 5.0 0.00 0.01 0.01 97 1020.0
20181112072510 42 53 2.0 5.0 0.00 0.01 0.01 97 1019.9
20181112072010 42 64 1.0 3.0 0.00 0.01 0.01 97 1019.9
20181112071510 42 64 1.0 2.0 0.00 0.01 0.01 98 1019.9
20181112071009 42 65 1.0 2.0 0.00 0.01 0.01 98 1020.0
20181112070509 42 65 1.0 2.0 0.00 0.01 0.01 98 1020.0
20181112070010 42 66 0.0 2.0 0.00 0.01 0.01 98 1020.0
20181112065509 42 0 0.0 0.0 0.00 0.01 0.01 98 1019.8
20181112065010 42 65 0.0 1.0 0.00 0.01 0.01 98 1019.5
20181112064510 42 65 1.0 2.0 0.00 0.01 0.01 98 1019.5
20181112064010 41 65 2.0 3.0 0.00 0.01 0.01 97 1019.4
20181112063509 41 80 2.0 3.0 0.00 0.01 0.01 97 1019.2
20181112063010 41 128 1.0 3.0 0.00 0.01 0.01 97 1019.2
20181112062510 41 118 1.0 3.0 0.00 0.01 0.01 97 1019.3
20181112062010 41 89 2.0 3.0 0.00 0.01 0.01 97 1019.2
20181112061510 41 88 2.0 3.0 0.00 0.01 0.01 97 1019.1
20181112061009 41 91 2.0 4.0 0.00 0.01 0.01 97 1019.0
20181112060510 41 98 3.0 4.0 0.00 0.01 0.01 97 1019.0
20181112060010 41 104 2.0 4.0 0.00 0.01 0.01 97 1018.9
20181112055510 41 105 2.0 3.0 0.00 0.01 0.01 97 1019.1
20181112055010 41 102 2.0 3.0 0.00 0.01 0.01 97 1019.1
20181112054510 41 98 3.0 4.0 0.00 0.01 0.01 97 1019.1
20181112054010 41 95 3.0 4.0 0.00 0.01 0.01 97 1019.1
20181112053509 41 92 3.0 6.0 0.00 0.01 0.01 97 1019.0
20181112053010 41 94 3.0 6.0 0.00 0.01 0.01 97 1018.9
20181112052510 41 97 3.0 6.0 0.00 0.01 0.01 97 1018.8
20181112052010 41 88 2.0 6.0 0.00 0.01 0.01 97 1018.9
20181112051509 41 75 3.0 5.0 0.00 0.01 0.01 97 1018.9
20181112051010 42 80 4.0 5.0 0.00 0.01 0.01 97 1018.9
20181112050510 41 89 4.0 7.0 0.00 0.01 0.01 97 1019.0
20181112050010 42 89 5.0 8.0 0.01 0.01 0.01 97 1018.8
20181112045510 42 84 4.0 8.0 0.01 0.01 0.01 97 1018.7
20181112045010 42 63 4.0 7.0 0.01 0.01 0.01 97 1018.6
20181112044509 42 52 4.0 7.0 0.01 0.01 0.01 97 1018.7
20181112044009 42 52 4.0 7.0 0.01 0.01 0.01 97 1018.7
20181112043510 42 45 3.0 5.0 0.01 0.01 0.01 97 1018.6
20181112043010 42 45 2.0 5.0 0.01 0.01 0.01 97 1018.6
20181112042509 42 48 3.0 5.0 0.01 0.01 0.01 97 1018.6